Time;durP1;ratioP1;P1;durP2;ratioP2;P2;SDS_P1;SDS_P2;PMS_P1;PMS_P2;Temp;Humidity;BMP_temperature;BMP_pressure;BME280_temperature;BME280_humidity;BME280_pressure;Samples;Min_cycle;Max_cycle;Signal;HPM_P1;HPM_P2
2023/07/28 00:02:08;;;;;;;39.30;36.70;;;21.30;99.90;;;;;;5011456;28;20045;-74
2023/07/28 00:04:35;;;;;;;36.65;34.45;;;21.30;99.90;;;;;;5011063;28;20030;-74
2023/07/28 00:07:02;;;;;;;57.88;54.50;;;21.30;99.90;;;;;;5012008;28;20030;-74
2023/07/28 00:09:28;;;;;;;51.35;48.30;;;21.30;99.90;;;;;;5010732;28;20034;-74
2023/07/28 00:11:55;;;;;;;55.72;52.75;;;21.20;99.90;;;;;;5010602;28;20383;-74
2023/07/28 00:14:21;;;;;;;46.33;43.47;;;21.20;99.90;;;;;;5014223;28;20045;-74
2023/07/28 00:16:47;;;;;;;40.67;38.35;;;21.30;99.90;;;;;;5015237;28;20038;-73
2023/07/28 00:19:13;;;;;;;36.75;34.40;;;21.20;99.90;;;;;;5014907;28;20037;-74
2023/07/28 00:21:39;;;;;;;33.97;31.75;;;21.30;99.90;;;;;;5015451;28;20042;-74
2023/07/28 00:24:05;;;;;;;37.80;35.55;;;21.30;99.90;;;;;;5014343;28;20037;-74
2023/07/28 00:26:31;;;;;;;19.23;17.75;;;21.30;99.90;;;;;;5015623;28;20029;-74
2023/07/28 00:28:59;;;;;;;20.17;18.48;;;21.30;99.90;;;;;;5015638;28;20033;-74
2023/07/28 00:31:25;;;;;;;17.60;16.35;;;21.30;99.90;;;;;;5015007;28;20502;-73
2023/07/28 00:33:51;;;;;;;19.90;18.40;;;21.30;99.90;;;;;;5015706;28;20045;-73
2023/07/28 00:36:17;;;;;;;19.83;18.42;;;21.20;99.90;;;;;;5014180;28;20487;-73
2023/07/28 00:38:43;;;;;;;22.13;20.20;;;21.20;99.90;;;;;;5014072;28;20045;-73
2023/07/28 00:41:09;;;;;;;27.48;25.50;;;21.20;99.90;;;;;;5014097;28;20387;-74
2023/07/28 00:43:35;;;;;;;26.30;24.73;;;21.30;99.90;;;;;;5015495;28;20029;-74
2023/07/28 00:46:01;;;;;;;23.23;21.77;;;21.30;99.90;;;;;;5013531;28;20030;-74
2023/07/28 00:48:27;;;;;;;20.83;19.50;;;21.30;99.90;;;;;;5014068;28;20033;-74
2023/07/28 00:50:54;;;;;;;27.00;25.25;;;21.30;99.90;;;;;;5013751;28;20046;-74
2023/07/28 00:53:20;;;;;;;28.13;26.45;;;21.30;99.90;;;;;;5013716;28;20038;-73
2023/07/28 00:55:46;;;;;;;31.90;30.00;;;21.20;99.90;;;;;;5013905;28;20501;-74
2023/07/28 00:58:12;;;;;;;32.80;30.88;;;21.30;99.90;;;;;;5013942;28;20030;-73
2023/07/28 01:00:38;;;;;;;39.35;37.25;;;21.20;99.90;;;;;;5014473;28;20414;-74
2023/07/28 01:03:05;;;;;;;35.50;33.55;;;21.20;99.90;;;;;;5015048;28;20045;-74
2023/07/28 01:06:01;;;;;;;34.55;32.65;;;21.20;99.90;;;;;;5014726;28;20049;-74
2023/07/28 01:08:49;;;;;;;29.05;27.27;;;21.20;99.90;;;;;;4971728;28;20034;-74
2023/07/28 01:11:15;;;;;;;23.50;22.08;;;21.20;99.90;;;;;;4957338;28;20035;-73
2023/07/28 01:13:41;;;;;;;26.58;24.98;;;21.20;99.90;;;;;;4973566;28;20057;-73
2023/07/28 01:16:07;;;;;;;28.88;27.27;;;21.20;99.90;;;;;;4972694;28;20400;-74
2023/07/28 01:18:34;;;;;;;24.50;23.05;;;21.30;99.90;;;;;;4957743;28;20035;-74
2023/07/28 01:21:01;;;;;;;21.90;20.38;;;21.20;99.90;;;;;;4957152;28;20065;-74
2023/07/28 01:23:41;;;;;;;21.33;19.85;;;21.20;99.90;;;;;;4956990;28;20031;-73
2023/07/28 01:26:11;;;;;;;22.45;21.13;;;21.20;99.90;;;;;;4938629;29;20432;-73
2023/07/28 01:28:39;;;;;;;18.30;17.23;;;21.20;99.90;;;;;;4954325;29;20047;-74
2023/07/28 01:31:06;;;;;;;19.73;18.50;;;21.20;99.90;;;;;;4945013;28;20127;-73
2023/07/28 01:33:32;;;;;;;22.73;21.38;;;21.20;99.90;;;;;;4957201;28;20047;-74
2023/07/28 01:36:00;;;;;;;18.45;17.42;;;21.20;99.90;;;;;;4956686;28;20038;-73
2023/07/28 01:38:29;;;;;;;17.35;16.25;;;21.20;99.90;;;;;;4972843;28;20035;-74
2023/07/28 01:40:55;;;;;;;20.33;19.13;;;21.20;99.90;;;;;;4956689;28;20134;-74
2023/07/28 01:43:21;;;;;;;22.60;21.38;;;21.10;99.90;;;;;;4973217;28;20523;-73
2023/07/28 01:45:47;;;;;;;18.05;16.85;;;21.20;99.90;;;;;;4992581;28;20045;-74
2023/07/28 01:48:13;;;;;;;25.20;23.88;;;21.20;99.90;;;;;;5014669;28;20029;-73
2023/07/28 01:50:40;;;;;;;23.35;21.83;;;21.20;99.90;;;;;;5013590;28;20045;-73
2023/07/28 01:53:06;;;;;;;20.40;19.17;;;21.20;99.90;;;;;;5013966;28;20029;-74
2023/07/28 01:55:32;;;;;;;23.58;22.25;;;21.20;99.90;;;;;;5013806;28;20041;-74
2023/07/28 01:57:59;;;;;;;25.40;23.95;;;21.20;99.90;;;;;;5013516;28;20033;-73
2023/07/28 02:00:25;;;;;;;25.25;23.65;;;21.10;99.90;;;;;;5008909;28;20030;-74
2023/07/28 02:02:52;;;;;;;21.85;20.55;;;21.10;99.90;;;;;;5006394;28;20057;-74
2023/07/28 02:05:18;;;;;;;22.13;20.90;;;21.10;99.90;;;;;;5011723;28;20066;-73
2023/07/28 02:07:44;;;;;;;22.20;21.02;;;21.20;99.90;;;;;;5011457;28;20029;-74
2023/07/28 02:10:10;;;;;;;20.70;19.63;;;21.20;99.90;;;;;;5012227;28;20034;-74
2023/07/28 02:12:37;;;;;;;18.48;17.48;;;21.20;99.90;;;;;;5013034;28;20034;-74
2023/07/28 02:15:04;;;;;;;18.50;17.40;;;21.20;99.90;;;;;;5011818;28;20038;-73
2023/07/28 02:17:31;;;;;;;20.48;19.35;;;21.10;99.90;;;;;;4994762;28;20026;-73
2023/07/28 02:19:57;;;;;;;20.33;19.15;;;21.10;99.90;;;;;;5008831;28;20045;-74
2023/07/28 02:22:23;;;;;;;18.15;16.98;;;21.10;99.90;;;;;;5010677;28;20034;-74
2023/07/28 02:24:49;;;;;;;19.98;18.67;;;21.00;99.90;;;;;;5012194;28;20049;-74
2023/07/28 02:27:15;;;;;;;21.95;20.60;;;21.00;99.90;;;;;;5010770;28;20034;-74
2023/07/28 02:29:42;;;;;;;23.50;22.23;;;21.10;99.90;;;;;;5012128;28;20033;-74
2023/07/28 02:32:08;;;;;;;22.42;21.20;;;21.10;99.90;;;;;;5011280;28;20065;-73
2023/07/28 02:34:34;;;;;;;21.83;20.67;;;21.00;99.90;;;;;;5010110;28;20041;-74
2023/07/28 02:37:00;;;;;;;23.75;22.15;;;21.00;99.90;;;;;;5011648;28;20025;-73
2023/07/28 02:39:26;;;;;;;23.85;22.63;;;21.00;99.90;;;;;;5012085;28;20037;-74
2023/07/28 02:41:52;;;;;;;22.23;20.85;;;21.10;99.90;;;;;;5013193;28;20034;-74
2023/07/28 02:44:19;;;;;;;22.95;21.70;;;21.10;99.90;;;;;;5013227;28;20041;-74
2023/07/28 02:46:45;;;;;;;22.10;21.02;;;21.00;99.90;;;;;;5011243;28;20036;-74
2023/07/28 02:49:11;;;;;;;28.52;26.98;;;21.10;99.90;;;;;;5012706;28;20467;-73
2023/07/28 02:51:37;;;;;;;24.67;23.50;;;21.10;99.90;;;;;;5012739;28;20044;-74
2023/07/28 02:54:03;;;;;;;25.80;24.35;;;21.00;99.90;;;;;;5012955;28;20471;-74
2023/07/28 02:56:34;;;;;;;25.48;24.23;;;20.90;99.90;;;;;;5012810;28;20459;-75
2023/07/28 02:59:01;;;;;;;16.98;16.00;;;21.00;99.90;;;;;;5011986;28;20030;-74
2023/07/28 03:01:29;;;;;;;19.50;18.45;;;21.00;99.90;;;;;;5012087;28;20030;-74
2023/07/28 03:03:55;;;;;;;21.17;19.98;;;21.00;99.90;;;;;;5011413;28;20022;-74
2023/07/28 03:06:22;;;;;;;20.67;19.65;;;21.00;99.90;;;;;;4994973;28;20053;-74
2023/07/28 03:08:48;;;;;;;23.55;22.05;;;20.90;99.90;;;;;;5012754;28;20034;-74
2023/07/28 03:11:14;;;;;;;20.80;19.73;;;20.90;99.90;;;;;;5012627;28;20041;-74
2023/07/28 03:13:40;;;;;;;21.40;20.35;;;21.00;99.90;;;;;;5012605;28;20045;-74
2023/07/28 03:16:06;;;;;;;18.88;17.95;;;21.00;99.90;;;;;;5010594;28;20391;-74
2023/07/28 03:18:32;;;;;;;18.70;17.70;;;21.00;99.90;;;;;;5012476;28;20032;-74
2023/07/28 03:20:58;;;;;;;21.20;20.00;;;21.00;99.90;;;;;;5012353;28;20407;-74
2023/07/28 03:23:24;;;;;;;19.75;18.77;;;21.00;99.90;;;;;;5012558;28;20033;-74
2023/07/28 03:25:51;;;;;;;17.85;16.85;;;21.00;99.90;;;;;;5011344;28;20030;-74
2023/07/28 03:28:17;;;;;;;15.88;15.13;;;21.00;99.90;;;;;;5012610;28;20032;-74
2023/07/28 03:30:43;;;;;;;16.02;15.07;;;21.00;99.90;;;;;;5011804;28;20084;-75
2023/07/28 03:33:09;;;;;;;17.23;16.30;;;21.00;99.90;;;;;;5011194;28;20467;-74
2023/07/28 03:35:35;;;;;;;16.73;15.73;;;21.10;99.90;;;;;;5012142;28;20054;-74
2023/07/28 03:38:02;;;;;;;15.70;14.82;;;21.10;99.90;;;;;;5012481;28;20037;-74
2023/07/28 03:40:28;;;;;;;16.95;16.13;;;21.10;99.90;;;;;;5011225;28;20029;-75
2023/07/28 03:42:54;;;;;;;17.08;16.20;;;21.10;99.90;;;;;;5011134;28;20049;-74
2023/07/28 03:45:20;;;;;;;18.08;17.15;;;21.00;99.90;;;;;;5010582;28;20026;-74
2023/07/28 03:47:46;;;;;;;18.98;17.98;;;21.00;99.90;;;;;;5011881;28;20030;-74
2023/07/28 03:50:12;;;;;;;19.85;18.85;;;21.00;99.90;;;;;;5014779;28;20050;-74
2023/07/28 03:52:39;;;;;;;21.00;19.95;;;21.10;99.90;;;;;;5016360;28;20482;-74
2023/07/28 03:55:05;;;;;;;19.30;18.40;;;21.10;99.90;;;;;;5016399;28;20046;-75
2023/07/28 03:57:31;;;;;;;18.83;17.77;;;21.10;99.90;;;;;;5014334;28;20494;-74
2023/07/28 03:59:57;;;;;;;17.77;16.85;;;21.00;99.90;;;;;;5016436;28;20041;-74
2023/07/28 04:02:23;;;;;;;23.23;22.10;;;21.10;99.90;;;;;;5014999;28;20487;-75
2023/07/28 04:04:56;;;;;;;19.15;17.92;;;21.10;99.90;;;;;;5014966;28;20041;-74
2023/07/28 04:07:22;;;;;;;21.20;20.13;;;21.10;99.90;;;;;;5014699;28;20418;-74
2023/07/28 04:09:48;;;;;;;19.95;18.83;;;21.10;99.90;;;;;;5016126;28;20038;-75
2023/07/28 04:12:14;;;;;;;19.05;17.95;;;21.10;99.90;;;;;;5015785;28;20041;-75
2023/07/28 04:14:41;;;;;;;18.58;17.60;;;21.10;99.90;;;;;;5015940;28;20097;-74
2023/07/28 04:17:07;;;;;;;19.83;18.67;;;21.10;99.90;;;;;;5013743;28;20037;-74
2023/07/28 04:19:33;;;;;;;19.50;18.48;;;21.10;99.90;;;;;;5016064;28;20395;-74
2023/07/28 04:22:00;;;;;;;20.33;19.20;;;21.20;99.90;;;;;;5015760;28;20074;-74
2023/07/28 04:24:26;;;;;;;19.98;19.02;;;21.20;99.90;;;;;;5014882;28;20021;-74
2023/07/28 04:26:53;;;;;;;24.15;22.95;;;21.20;99.90;;;;;;5014729;28;20030;-74
2023/07/28 04:29:19;;;;;;;28.30;26.95;;;21.20;99.90;;;;;;5015904;28;20041;-73
2023/07/28 04:31:45;;;;;;;30.02;28.30;;;21.20;99.90;;;;;;5013403;28;20034;-74
2023/07/28 04:34:11;;;;;;;26.17;24.85;;;21.20;99.90;;;;;;5015791;28;20038;-74
2023/07/28 04:36:37;;;;;;;25.63;24.38;;;21.20;99.90;;;;;;4998166;28;20117;-74
2023/07/28 04:39:03;;;;;;;25.15;23.85;;;21.20;99.90;;;;;;5015798;28;20029;-74
2023/07/28 04:41:29;;;;;;;26.55;25.30;;;21.20;99.90;;;;;;5013885;28;20037;-74
2023/07/28 04:43:56;;;;;;;23.63;22.50;;;21.20;99.90;;;;;;5015565;28;20037;-74
2023/07/28 04:46:22;;;;;;;21.30;20.13;;;21.20;99.90;;;;;;5014770;28;20041;-74
2023/07/28 04:48:48;;;;;;;23.88;22.70;;;21.20;99.90;;;;;;5013950;28;20041;-74
2023/07/28 04:51:14;;;;;;;21.75;20.73;;;21.20;99.90;;;;;;5014137;28;20156;-74
2023/07/28 04:53:41;;;;;;;25.98;24.73;;;21.20;99.90;;;;;;5014006;28;20029;-74
2023/07/28 04:56:07;;;;;;;25.58;23.98;;;21.30;99.90;;;;;;5014012;28;20056;-74
2023/07/28 04:58:33;;;;;;;23.40;22.15;;;21.20;99.90;;;;;;5013343;28;20045;-75
2023/07/28 05:01:01;;;;;;;22.40;21.27;;;21.20;99.90;;;;;;5014529;28;20029;-74
2023/07/28 05:03:27;;;;;;;25.38;24.00;;;21.20;99.90;;;;;;5014049;28;20034;-74
2023/07/28 05:05:53;;;;;;;25.05;23.80;;;21.20;99.90;;;;;;5015305;28;20045;-74
2023/07/28 05:08:19;;;;;;;22.50;21.20;;;21.20;99.90;;;;;;4997399;28;20038;-74
2023/07/28 05:10:45;;;;;;;24.73;23.48;;;21.20;99.90;;;;;;5013825;28;20045;-74
2023/07/28 05:13:11;;;;;;;27.52;26.10;;;21.20;99.90;;;;;;5013961;28;20033;-74
2023/07/28 05:15:37;;;;;;;32.08;30.42;;;21.20;99.90;;;;;;5014062;28;20042;-74
2023/07/28 05:18:03;;;;;;;29.30;27.83;;;21.20;99.90;;;;;;5014820;28;20030;-74
2023/07/28 05:20:29;;;;;;;26.02;24.52;;;21.20;99.90;;;;;;5014951;28;20060;-74
2023/07/28 05:22:55;;;;;;;28.52;27.00;;;21.20;99.90;;;;;;5014863;28;20026;-74
2023/07/28 05:25:22;;;;;;;26.60;25.08;;;21.30;99.90;;;;;;5014959;28;20039;-73
2023/07/28 05:27:48;;;;;;;27.20;25.67;;;21.30;99.90;;;;;;5012904;28;20060;-74
2023/07/28 05:30:14;;;;;;;27.77;26.33;;;21.30;99.90;;;;;;5013143;28;20026;-74
2023/07/28 05:32:40;;;;;;;27.83;26.38;;;21.30;99.90;;;;;;5013224;28;20045;-73
2023/07/28 05:35:06;;;;;;;24.25;22.98;;;21.30;99.90;;;;;;5014635;28;20042;-74
2023/07/28 05:37:33;;;;;;;26.77;25.40;;;21.30;99.90;;;;;;5014537;28;20036;-74
2023/07/28 05:39:59;;;;;;;28.77;26.90;;;21.30;99.90;;;;;;5014578;28;20035;-74
2023/07/28 05:42:25;;;;;;;25.52;24.05;;;21.20;99.90;;;;;;5014087;28;20467;-74
2023/07/28 05:44:55;;;;;;;34.20;32.38;;;21.30;99.90;;;;;;5014495;28;20082;-74
2023/07/28 05:47:21;;;;;;;31.77;30.17;;;21.20;99.90;;;;;;5013953;28;20034;-74
2023/07/28 05:49:47;;;;;;;35.53;33.67;;;21.20;99.90;;;;;;5012527;28;20041;-74
2023/07/28 05:52:13;;;;;;;33.00;31.27;;;21.30;99.90;;;;;;5014269;28;20025;-75
2023/07/28 05:54:39;;;;;;;28.90;27.48;;;21.30;99.90;;;;;;5014290;28;20034;-74
2023/07/28 05:57:05;;;;;;;25.70;24.40;;;21.40;99.90;;;;;;5013875;28;20034;-74
2023/07/28 05:59:31;;;;;;;26.52;25.02;;;21.40;99.90;;;;;;5013053;28;20033;-75
2023/07/28 06:01:58;;;;;;;27.33;25.85;;;21.30;99.90;;;;;;5013774;28;20030;-74
2023/07/28 06:04:24;;;;;;;28.38;26.98;;;21.30;99.90;;;;;;5014086;28;20026;-74
2023/07/28 06:06:50;;;;;;;25.75;24.50;;;21.40;99.90;;;;;;5012795;28;20041;-74
2023/07/28 06:09:16;;;;;;;29.50;27.67;;;21.40;99.90;;;;;;5014036;28;20022;-75
2023/07/28 06:11:42;;;;;;;30.45;29.02;;;21.40;99.90;;;;;;5011474;28;20041;-74
2023/07/28 06:14:08;;;;;;;26.63;25.23;;;21.40;99.90;;;;;;5013788;28;20022;-74
2023/07/28 06:16:34;;;;;;;29.10;27.48;;;21.40;99.90;;;;;;5013252;28;20049;-74
2023/07/28 06:19:00;;;;;;;24.98;23.67;;;21.50;99.90;;;;;;5013754;28;20049;-74
2023/07/28 06:21:26;;;;;;;23.92;22.48;;;21.40;99.90;;;;;;5012502;28;20025;-74
2023/07/28 06:23:52;;;;;;;24.00;22.45;;;21.40;99.90;;;;;;5013776;28;20041;-74
2023/07/28 06:26:18;;;;;;;21.98;20.75;;;21.40;99.90;;;;;;5013416;28;20463;-74
2023/07/28 06:28:45;;;;;;;25.33;23.90;;;21.40;99.90;;;;;;5012530;28;20063;-74
2023/07/28 06:31:11;;;;;;;22.30;21.02;;;21.40;99.90;;;;;;5013118;28;20057;-75
2023/07/28 06:33:37;;;;;;;27.58;26.13;;;21.40;99.90;;;;;;5013558;28;20033;-74
2023/07/28 06:36:04;;;;;;;28.20;26.77;;;21.50;99.90;;;;;;5013494;28;20042;-75
2023/07/28 06:38:30;;;;;;;27.33;25.85;;;21.60;99.90;;;;;;5013510;28;20455;-74
2023/07/28 06:40:56;;;;;;;26.58;25.20;;;21.60;99.90;;;;;;5013069;28;20041;-74
2023/07/28 06:43:22;;;;;;;26.55;25.20;;;21.60;99.90;;;;;;5012256;28;20368;-74
2023/07/28 06:45:51;;;;;;;25.90;24.42;;;21.60;99.90;;;;;;5012904;28;20045;-75
2023/07/28 06:48:18;;;;;;;26.70;25.15;;;21.60;99.90;;;;;;5011480;28;20030;-75
2023/07/28 06:50:44;;;;;;;28.25;26.63;;;21.60;99.90;;;;;;5011974;28;20080;-74
2023/07/28 06:53:10;;;;;;;26.75;25.40;;;21.70;99.90;;;;;;5013267;28;20025;-75
2023/07/28 06:55:38;;;;;;;24.33;22.88;;;21.70;99.90;;;;;;5011488;28;20479;-74
2023/07/28 06:58:07;;;;;;;24.77;23.42;;;21.70;99.90;;;;;;5012026;28;20026;-74
2023/07/28 07:00:33;;;;;;;27.83;26.42;;;21.70;99.90;;;;;;5011381;28;20026;-74
2023/07/28 07:02:59;;;;;;;28.33;26.90;;;21.80;99.90;;;;;;5013086;28;20105;-74
2023/07/28 07:05:25;;;;;;;27.77;26.08;;;21.70;99.90;;;;;;5012975;28;20386;-74
2023/07/28 07:07:52;;;;;;;27.58;26.27;;;21.80;99.90;;;;;;5013029;28;20036;-74
2023/07/28 07:10:18;;;;;;;29.15;27.60;;;21.70;99.90;;;;;;5012554;28;20033;-74
2023/07/28 07:12:44;;;;;;;25.98;24.67;;;21.70;99.90;;;;;;5012984;28;20479;-74
2023/07/28 07:15:11;;;;;;;23.55;22.25;;;21.70;99.90;;;;;;5011165;28;20041;-74
2023/07/28 07:17:37;;;;;;;27.98;26.58;;;21.70;99.90;;;;;;5012613;28;20033;-74
2023/07/28 07:20:05;;;;;;;27.92;26.33;;;21.80;99.90;;;;;;5012767;28;20057;-74
2023/07/28 07:22:31;;;;;;;24.80;23.50;;;21.80;99.90;;;;;;5012553;28;20042;-74
2023/07/28 07:24:57;;;;;;;27.38;25.42;;;21.80;99.90;;;;;;5012461;28;20026;-74
2023/07/28 07:27:24;;;;;;;29.63;28.23;;;21.90;99.90;;;;;;5012524;28;20505;-74
2023/07/28 07:29:51;;;;;;;32.00;30.40;;;21.90;99.90;;;;;;5011465;28;20048;-74
2023/07/28 07:32:17;;;;;;;37.05;35.03;;;21.90;99.90;;;;;;5012086;28;20030;-74
2023/07/28 07:34:43;;;;;;;27.67;26.20;;;22.00;99.90;;;;;;5012636;28;20029;-74
2023/07/28 07:37:09;;;;;;;30.05;28.52;;;22.00;99.90;;;;;;5012507;28;20026;-75
2023/07/28 07:39:36;;;;;;;31.92;30.15;;;22.00;99.90;;;;;;5012278;28;20037;-74
2023/07/28 07:42:02;;;;;;;27.45;25.98;;;22.00;99.90;;;;;;5011274;28;20029;-74
2023/07/28 07:44:28;;;;;;;30.85;29.20;;;22.00;99.90;;;;;;5012633;28;20030;-74
2023/07/28 07:46:56;;;;;;;33.03;31.23;;;22.00;99.90;;;;;;4994432;28;20114;-74
2023/07/28 07:49:22;;;;;;;22.92;21.60;;;22.00;99.90;;;;;;5010949;28;20037;-74
2023/07/28 07:51:48;;;;;;;22.40;21.13;;;22.20;99.90;;;;;;5011320;28;20030;-75
2023/07/28 07:54:18;;;;;;;24.48;22.92;;;22.30;99.90;;;;;;5012036;28;20030;-74
2023/07/28 07:56:46;;;;;;;31.60;29.73;;;22.30;99.90;;;;;;5011232;28;20056;-74
2023/07/28 07:59:12;;;;;;;28.02;26.45;;;22.30;99.90;;;;;;4995416;28;20033;-75
2023/07/28 08:01:38;;;;;;;31.92;29.98;;;22.30;99.90;;;;;;5010652;28;20510;-75
2023/07/28 08:04:05;;;;;;;36.08;34.08;;;22.40;99.90;;;;;;5012348;28;20037;-75
2023/07/28 08:06:31;;;;;;;29.73;28.08;;;22.50;99.90;;;;;;5011353;28;20038;-75
2023/07/28 08:08:59;;;;;;;29.90;28.42;;;22.50;99.90;;;;;;5011973;28;20022;-74
2023/07/28 08:11:25;;;;;;;33.45;31.77;;;22.50;99.90;;;;;;5012288;28;20467;-74
2023/07/28 08:13:51;;;;;;;32.63;30.83;;;22.60;99.90;;;;;;5011214;28;20033;-75
2023/07/28 08:16:17;;;;;;;33.20;31.50;;;22.50;99.90;;;;;;4994058;28;20041;-75
2023/07/28 08:18:43;;;;;;;26.80;25.10;;;22.50;99.90;;;;;;5010446;28;20046;-74
2023/07/28 08:21:09;;;;;;;27.15;25.52;;;22.50;99.90;;;;;;5012371;28;20034;-75
2023/07/28 08:23:36;;;;;;;21.85;20.25;;;22.50;99.90;;;;;;5010681;28;20046;-75
2023/07/28 08:26:02;;;;;;;18.80;17.70;;;22.70;99.90;;;;;;5012253;28;20047;-74
2023/07/28 08:28:28;;;;;;;22.90;21.50;;;22.90;99.90;;;;;;5012230;28;20041;-75
2023/07/28 08:30:56;;;;;;;26.98;25.58;;;23.00;99.90;;;;;;5017428;28;20401;-75
2023/07/28 08:33:22;;;;;;;22.27;20.92;;;23.10;99.90;;;;;;5030900;28;20033;-75
2023/07/28 08:35:48;;;;;;;25.88;24.23;;;23.10;99.90;;;;;;5035487;28;20040;-75
2023/07/28 08:38:14;;;;;;;28.45;26.75;;;23.20;99.90;;;;;;5034001;28;20029;-75
2023/07/28 08:40:40;;;;;;;29.00;27.45;;;23.20;99.90;;;;;;5034110;28;20390;-75
2023/07/28 08:43:07;;;;;;;31.20;29.27;;;23.20;99.90;;;;;;5034181;28;20032;-75
2023/07/28 08:45:33;;;;;;;28.90;27.10;;;23.10;99.90;;;;;;5033642;28;20471;-78
2023/07/28 08:48:00;;;;;;;28.10;26.55;;;23.10;99.90;;;;;;5034118;28;20037;-74
2023/07/28 08:50:26;;;;;;;31.55;29.55;;;23.10;99.90;;;;;;5015025;28;20042;-75
2023/07/28 08:52:52;;;;;;;27.55;25.85;;;23.00;99.90;;;;;;5013962;28;20463;-75
2023/07/28 08:55:18;;;;;;;25.63;24.17;;;23.00;99.90;;;;;;5014173;28;20041;-75
2023/07/28 08:57:44;;;;;;;25.60;23.92;;;22.90;99.90;;;;;;5014308;28;20029;-75
2023/07/28 09:00:14;;;;;;;25.50;23.80;;;22.90;99.90;;;;;;5014552;28;20038;-76
2023/07/28 09:02:41;;;;;;;25.77;24.27;;;22.90;99.90;;;;;;5014224;28;20037;-74
2023/07/28 09:05:08;;;;;;;24.98;23.45;;;23.00;99.90;;;;;;5013987;28;20458;-75
2023/07/28 09:07:36;;;;;;;24.90;23.48;;;23.00;99.90;;;;;;5013601;28;20038;-75
2023/07/28 09:10:03;;;;;;;24.60;23.38;;;23.10;99.90;;;;;;5015201;28;20018;-75
2023/07/28 09:12:32;;;;;;;26.58;25.25;;;23.00;99.90;;;;;;5015430;28;20042;-75
2023/07/28 09:14:58;;;;;;;22.90;21.60;;;23.10;99.90;;;;;;5013719;28;20026;-75
2023/07/28 09:17:24;;;;;;;31.38;29.73;;;23.10;99.90;;;;;;5013090;28;20045;-74
2023/07/28 09:19:55;;;;;;;21.80;20.65;;;23.10;99.90;;;;;;5013383;28;20034;-75
2023/07/28 09:22:21;;;;;;;27.73;26.33;;;23.10;99.90;;;;;;5013727;28;20039;-75
2023/07/28 09:24:47;;;;;;;21.50;20.20;;;23.10;99.90;;;;;;5014806;28;20459;-74
2023/07/28 09:27:28;;;;;;;25.23;23.90;;;23.10;99.90;;;;;;5013771;28;20479;-75
2023/07/28 09:29:54;;;;;;;;;;;23.20;99.90;;;;;;5013758;28;20038;-75
2023/07/28 09:32:32;;;;;;;20.77;19.65;;;23.30;99.90;;;;;;5013093;28;20358;-75
2023/07/28 09:35:12;;;;;;;31.63;29.83;;;23.40;99.90;;;;;;5013134;28;20021;-75
2023/07/28 09:37:40;;;;;;;25.77;24.40;;;23.50;99.90;;;;;;5013536;28;20026;-75
2023/07/28 09:40:11;;;;;;;27.30;25.90;;;23.60;99.90;;;;;;5013198;28;20050;-75
2023/07/28 09:42:41;;;;;;;34.88;33.20;;;23.60;99.90;;;;;;5013368;28;20407;-74
2023/07/28 09:45:08;;;;;;;34.30;32.53;;;23.60;99.90;;;;;;5012838;28;20026;-75
2023/07/28 09:47:35;;;;;;;27.27;25.88;;;23.50;99.90;;;;;;5013218;28;20041;-75
2023/07/28 09:50:06;;;;;;;29.80;28.10;;;23.50;99.90;;;;;;5013760;28;20042;-74
2023/07/28 09:52:35;;;;;;;30.98;29.33;;;23.60;99.90;;;;;;5013226;28;20048;-75
2023/07/28 09:55:05;;;;;;;30.70;29.27;;;23.60;99.90;;;;;;5013073;28;20026;-75
2023/07/28 09:57:33;;;;;;;29.98;28.48;;;23.60;99.90;;;;;;5014235;28;20017;-74
2023/07/28 09:59:59;;;;;;;34.20;32.53;;;23.60;99.90;;;;;;5013336;28;20061;-75
2023/07/28 10:02:25;;;;;;;30.88;29.35;;;23.70;99.90;;;;;;5012398;28;20037;-75
2023/07/28 10:04:51;;;;;;;36.38;34.58;;;23.70;99.90;;;;;;5013727;28;20386;-74
2023/07/28 10:07:17;;;;;;;37.75;35.85;;;23.70;99.90;;;;;;5012836;28;20034;-75
2023/07/28 10:09:44;;;;;;;37.83;36.03;;;23.60;99.90;;;;;;5012878;28;20021;-75
2023/07/28 10:12:18;;;;;;;39.50;37.50;;;23.60;99.90;;;;;;5012601;28;20037;-74
2023/07/28 10:14:46;;;;;;;33.28;31.63;;;23.40;99.90;;;;;;5013819;28;20363;-74
2023/07/28 10:17:16;;;;;;;25.67;24.42;;;23.50;99.90;;;;;;5013318;28;20483;-75
2023/07/28 10:19:43;;;;;;;31.63;30.13;;;23.70;99.90;;;;;;5012334;28;20485;-74
2023/07/28 10:22:10;;;;;;;34.95;33.20;;;23.70;99.90;;;;;;5012133;28;20038;-74
2023/07/28 10:24:56;;;;;;;37.85;36.05;;;23.90;99.90;;;;;;5013735;28;20028;-76
2023/07/28 10:27:34;;;;;;;41.65;39.65;;;24.20;99.90;;;;;;5012437;28;20029;-74
2023/07/28 10:30:01;;;;;;;55.92;53.08;;;24.50;99.90;;;;;;5013766;28;20388;-73
2023/07/28 10:32:28;;;;;;;54.60;51.90;;;24.70;99.90;;;;;;5011372;28;20030;-74
2023/07/28 10:35:08;;;;;;;47.75;45.45;;;24.90;99.90;;;;;;5012258;28;20030;-74
2023/07/28 10:37:37;;;;;;;59.25;56.08;;;24.90;99.90;;;;;;5012268;28;20042;-74
2023/07/28 10:40:22;;;;;;;60.30;57.33;;;25.10;99.90;;;;;;5013422;28;20022;-74
2023/07/28 10:42:49;;;;;;;59.13;56.28;;;25.20;99.90;;;;;;5013357;28;20033;-74
2023/07/28 10:45:15;;;;;;;41.08;38.97;;;25.30;99.90;;;;;;5013081;28;20026;-75
2023/07/28 10:47:41;;;;;;;41.28;39.17;;;25.20;99.90;;;;;;5011666;28;20033;-74
2023/07/28 10:50:09;;;;;;;45.00;42.83;;;25.10;99.90;;;;;;5011858;28;20422;-75
2023/07/28 10:52:42;;;;;;;49.17;46.83;;;25.20;99.90;;;;;;5013295;28;20387;-75
2023/07/28 10:55:16;;;;;;;46.20;43.88;;;25.30;99.90;;;;;;5012055;28;20022;-75
2023/07/28 10:57:43;;;;;;;50.80;48.20;;;25.40;99.90;;;;;;5012730;28;20042;-74
2023/07/28 11:00:11;;;;;;;49.75;47.33;;;25.50;99.90;;;;;;5013054;28;20037;-74
2023/07/28 11:02:44;;;;;;;61.42;58.50;;;25.60;99.90;;;;;;5011560;28;20489;-74
2023/07/28 11:05:18;;;;;;;58.28;55.47;;;25.60;99.90;;;;;;5013019;28;20030;-75
2023/07/28 11:07:45;;;;;;;58.13;55.20;;;25.70;99.90;;;;;;5011854;28;20041;-75
2023/07/28 11:10:15;;;;;;;56.33;53.65;;;25.70;99.90;;;;;;5012833;28;20467;-75
2023/07/28 11:12:44;;;;;;;56.88;54.20;;;25.90;99.90;;;;;;5011598;28;20046;-73
2023/07/28 11:15:11;;;;;;;58.65;55.85;;;26.00;99.90;;;;;;5011290;28;20036;-74
2023/07/28 11:17:39;;;;;;;59.13;56.30;;;26.00;99.90;;;;;;5012447;28;20515;-74
2023/07/28 11:20:18;;;;;;;58.13;55.30;;;26.00;99.90;;;;;;4995350;28;20038;-74
2023/07/28 11:23:05;;;;;;;60.33;57.45;;;26.00;99.90;;;;;;5011698;28;20033;-75
2023/07/28 11:25:33;;;;;;;57.00;54.28;;;26.00;99.90;;;;;;5011371;28;20029;-75
2023/07/28 11:28:08;;;;;;;65.28;62.17;;;26.00;99.90;;;;;;5011698;28;20026;-75
2023/07/28 11:30:37;;;;;;;64.35;61.35;;;26.00;99.90;;;;;;5010673;28;20030;-75
2023/07/28 11:33:03;;;;;;;58.00;55.28;;;25.90;99.90;;;;;;5011469;28;20483;-75
2023/07/28 11:35:29;;;;;;;64.82;61.72;;;26.00;99.90;;;;;;5012628;28;20467;-74
2023/07/28 11:37:55;;;;;;;59.30;56.53;;;26.10;99.90;;;;;;5011478;28;20034;-75
2023/07/28 11:40:22;;;;;;;67.50;64.35;;;26.30;99.90;;;;;;5012450;28;20037;-75
2023/07/28 11:42:50;;;;;;;74.13;70.57;;;26.30;99.90;;;;;;5011405;28;20363;-75
2023/07/28 11:45:18;;;;;;;58.97;56.17;;;26.20;99.90;;;;;;5010634;28;20029;-75
2023/07/28 11:47:59;;;;;;;63.00;60.03;;;26.20;99.90;;;;;;5011365;28;20025;-75
2023/07/28 11:50:39;;;;;;;61.72;58.75;;;26.30;99.90;;;;;;5012285;28;20046;-75
2023/07/28 11:53:06;;;;;;;70.68;67.30;;;26.40;99.90;;;;;;5012573;28;20030;-75
2023/07/28 11:55:33;;;;;;;77.45;73.75;;;26.60;99.90;;;;;;5011176;28;20018;-74
2023/07/28 11:58:01;;;;;;;72.32;68.85;;;26.80;99.90;;;;;;5011345;28;20030;-75
2023/07/28 12:00:34;;;;;;;89.18;84.88;;;26.90;99.90;;;;;;5010436;28;20030;-75
2023/07/28 12:03:02;;;;;;;89.60;85.32;;;27.10;99.90;;;;;;5011296;28;20030;-75
2023/07/28 12:05:28;;;;;;;87.68;83.55;;;27.30;99.90;;;;;;5012348;28;20046;-75
2023/07/28 12:07:54;;;;;;;86.35;82.25;;;27.40;99.90;;;;;;5011041;28;20391;-75
2023/07/28 12:10:20;;;;;;;96.35;91.63;;;27.60;99.90;;;;;;5015793;28;20037;-75
2023/07/28 12:12:47;;;;;;;100.82;95.25;;;27.60;99.90;;;;;;4998982;28;20030;-75
2023/07/28 12:15:28;;;;;;;103.07;98.13;;;27.60;99.90;;;;;;5015260;28;20030;-75
2023/07/28 12:18:08;;;;;;;99.57;94.72;;;27.70;99.90;;;;;;5016024;28;20042;-75
2023/07/28 12:20:38;;;;;;;99.72;94.95;;;27.80;99.90;;;;;;5015009;28;20034;-75
2023/07/28 12:23:05;;;;;;;106.03;101.03;;;27.90;99.90;;;;;;5014862;28;20033;-75
2023/07/28 12:25:31;;;;;;;96.40;91.85;;;27.90;99.90;;;;;;5014872;28;20371;-75
2023/07/28 12:27:57;;;;;;;103.00;98.10;;;28.00;99.90;;;;;;5015073;28;20371;-75
2023/07/28 12:30:23;;;;;;;107.78;102.68;;;28.00;99.90;;;;;;5014131;28;20026;-74